Time;durP1;ratioP1;P1;durP2;ratioP2;P2;SDS_P1;SDS_P2;PMS_P1;PMS_P2;Temp;Humidity;BMP_temperature;BMP_pressure;BME280_temperature;BME280_humidity;BME280_pressure;Samples;Min_cycle;Max_cycle;Signal;HPM_P1;HPM_P2
2021/10/16 00:01:32;;;;;;;11.60;4.53;;;7.90;99.90;;;;;;4417867;28;655331;-69
2021/10/16 00:04:20;;;;;;;8.37;4.67;;;7.80;99.90;;;;;;4421118;28;655411;-69
2021/10/16 00:07:08;;;;;;;8.20;4.03;;;7.80;99.90;;;;;;4410476;28;655506;-68
2021/10/16 00:09:55;;;;;;;7.20;4.13;;;7.70;99.90;;;;;;4427494;28;654585;-69
2021/10/16 00:12:44;;;;;;;6.97;3.40;;;7.70;99.90;;;;;;4441326;28;655161;-69
2021/10/16 00:15:32;;;;;;;7.77;3.90;;;7.60;99.90;;;;;;4417858;28;654418;-69
2021/10/16 00:18:19;;;;;;;5.60;3.20;;;7.60;99.90;;;;;;4448752;28;654377;-69
2021/10/16 00:21:07;;;;;;;6.03;3.30;;;7.50;99.90;;;;;;4418111;28;655890;-69
2021/10/16 00:23:54;;;;;;;6.43;3.50;;;7.40;99.90;;;;;;4451248;28;654067;-69
2021/10/16 00:26:42;;;;;;;5.27;3.30;;;7.40;99.90;;;;;;4426988;28;656558;-69
2021/10/16 00:29:31;;;;;;;7.00;3.50;;;7.40;99.90;;;;;;4444995;28;654617;-69
2021/10/16 00:32:18;;;;;;;7.87;3.70;;;7.30;99.90;;;;;;4421188;28;655081;-68
2021/10/16 00:35:06;;;;;;;6.50;3.60;;;7.30;99.90;;;;;;4423421;28;654542;-69
2021/10/16 00:37:54;;;;;;;7.33;3.57;;;7.20;99.90;;;;;;4450503;28;655138;-69
2021/10/16 00:40:43;;;;;;;8.50;3.73;;;7.20;99.90;;;;;;4426662;28;654999;-69
2021/10/16 00:43:32;;;;;;;7.03;3.87;;;7.10;99.90;;;;;;4425762;28;654592;-68
2021/10/16 00:46:21;;;;;;;8.77;4.17;;;7.10;99.90;;;;;;4443732;28;654509;-69
2021/10/16 00:49:08;;;;;;;8.33;4.00;;;7.10;99.90;;;;;;4419978;28;655197;-69
2021/10/16 00:51:56;;;;;;;5.50;3.80;;;7.00;99.90;;;;;;4426929;28;654332;-68
2021/10/16 00:54:43;;;;;;;11.17;4.27;;;7.10;99.90;;;;;;4447125;28;655599;-69
2021/10/16 00:57:32;;;;;;;7.73;4.03;;;7.10;99.90;;;;;;4424640;28;655274;-69
2021/10/16 01:00:19;;;;;;;8.13;4.63;;;7.10;99.90;;;;;;4441785;28;654492;-69
2021/10/16 01:03:08;;;;;;;8.93;4.30;;;7.10;99.90;;;;;;4423298;28;654553;-69
2021/10/16 01:05:56;;;;;;;9.33;4.40;;;7.10;99.90;;;;;;4421039;28;654467;-69
2021/10/16 01:08:43;;;;;;;7.47;4.30;;;7.10;99.90;;;;;;4444322;28;655081;-69
2021/10/16 01:11:34;;;;;;;6.80;4.40;;;7.10;99.90;;;;;;4425191;28;655236;-69
2021/10/16 01:14:22;;;;;;;5.60;3.50;;;7.10;99.90;;;;;;4420565;28;655680;-69
2021/10/16 01:17:10;;;;;;;5.87;3.87;;;7.10;99.90;;;;;;4442143;28;654417;-69
2021/10/16 01:20:03;;;;;;;6.60;3.50;;;7.10;99.90;;;;;;4426735;28;655335;-69
2021/10/16 01:22:53;;;;;;;5.10;3.20;;;7.10;99.90;;;;;;4397226;28;656029;-69
2021/10/16 01:25:41;;;;;;;6.27;3.20;;;7.10;99.90;;;;;;4425401;28;654582;-69
2021/10/16 01:28:28;;;;;;;6.23;3.20;;;7.10;99.90;;;;;;4442408;28;655216;-69
2021/10/16 01:31:16;;;;;;;7.13;3.17;;;7.10;99.90;;;;;;4424859;28;654563;-69
2021/10/16 01:34:03;;;;;;;7.87;3.60;;;7.20;99.90;;;;;;4445714;28;655071;-69
2021/10/16 01:36:51;;;;;;;7.87;3.27;;;7.10;99.90;;;;;;4425722;28;654874;-69
2021/10/16 01:39:40;;;;;;;14.67;4.10;;;7.10;99.90;;;;;;4443463;28;654528;-69
2021/10/16 01:42:28;;;;;;;8.03;3.67;;;7.00;99.90;;;;;;4418854;28;656963;-69
2021/10/16 01:45:17;;;;;;;8.40;4.30;;;7.00;99.90;;;;;;4426558;28;654389;-69
2021/10/16 01:48:05;;;;;;;10.20;4.63;;;6.90;99.90;;;;;;4445821;28;654698;-69
2021/10/16 01:50:53;;;;;;;8.70;4.50;;;7.00;99.90;;;;;;4420530;28;656311;-69
2021/10/16 01:53:40;;;;;;;17.60;4.35;;;7.00;99.90;;;;;;4425324;28;654764;-69
2021/10/16 01:56:29;;;;;;;7.30;4.17;;;7.00;99.90;;;;;;4437168;28;656081;-69
2021/10/16 01:59:18;;;;;;;11.37;4.23;;;7.00;99.90;;;;;;4423967;28;655723;-69
2021/10/16 02:02:06;;;;;;;8.52;3.97;;;6.90;99.90;;;;;;4425520;28;655224;-69
2021/10/16 02:04:53;;;;;;;7.43;3.93;;;6.90;99.90;;;;;;4447432;28;654791;-69
2021/10/16 02:07:41;;;;;;;10.60;3.77;;;6.90;99.90;;;;;;4426363;28;654377;-69
2021/10/16 02:10:28;;;;;;;6.93;3.17;;;6.90;99.90;;;;;;4443645;28;657010;-69
2021/10/16 02:13:17;;;;;;;6.00;3.40;;;6.90;99.90;;;;;;4427189;28;654760;-69
2021/10/16 02:16:05;;;;;;;8.97;3.53;;;6.80;99.90;;;;;;4444679;28;654416;-69
2021/10/16 02:18:53;;;;;;;8.67;3.17;;;6.80;99.90;;;;;;4419900;28;655452;-69
2021/10/16 02:21:40;;;;;;;7.63;3.30;;;6.80;99.90;;;;;;4429532;28;654426;-69
2021/10/16 02:24:28;;;;;;;7.40;3.23;;;6.80;99.90;;;;;;4442494;28;655545;-69
2021/10/16 02:27:15;;;;;;;8.00;3.53;;;6.80;99.90;;;;;;4427076;28;654290;-69
2021/10/16 02:30:05;;;;;;;7.60;4.00;;;6.80;99.90;;;;;;4449093;28;654843;-69
2021/10/16 02:32:53;;;;;;;10.73;4.13;;;6.80;99.90;;;;;;4426440;28;655615;-69
2021/10/16 02:35:40;;;;;;;12.80;3.93;;;6.80;99.90;;;;;;4435392;28;655400;-69
2021/10/16 02:38:28;;;;;;;6.93;3.90;;;6.80;99.90;;;;;;4441733;28;656355;-69
2021/10/16 02:41:16;;;;;;;13.15;4.22;;;6.80;99.90;;;;;;4426822;28;654375;-69
2021/10/16 02:44:03;;;;;;;8.83;4.27;;;6.80;99.90;;;;;;4450837;28;656472;-69
2021/10/16 02:46:52;;;;;;;13.07;5.17;;;6.80;99.90;;;;;;4424362;28;654543;-69
2021/10/16 02:49:39;;;;;;;11.67;4.90;;;6.80;99.90;;;;;;4438246;28;655914;-69
2021/10/16 02:52:27;;;;;;;12.43;5.10;;;6.80;99.90;;;;;;4426274;28;656692;-69
2021/10/16 02:55:16;;;;;;;12.07;4.90;;;6.80;99.90;;;;;;4443544;28;655960;-69
2021/10/16 02:58:03;;;;;;;13.57;5.45;;;6.70;99.90;;;;;;4423511;28;656677;-69
2021/10/16 03:00:51;;;;;;;10.13;5.53;;;6.80;99.90;;;;;;4425046;28;656448;-69
2021/10/16 03:03:40;;;;;;;13.48;5.50;;;6.80;99.90;;;;;;4446094;28;656255;-69
2021/10/16 03:06:27;;;;;;;10.47;4.50;;;6.80;99.90;;;;;;4417245;28;656365;-69
2021/10/16 03:09:17;;;;;;;15.00;5.20;;;6.70;99.90;;;;;;4443930;28;655312;-69
2021/10/16 03:12:05;;;;;;;13.73;5.03;;;6.70;99.90;;;;;;4424400;28;655663;-69
2021/10/16 03:14:55;;;;;;;16.37;5.37;;;6.80;99.90;;;;;;4423208;28;656349;-69
2021/10/16 03:17:43;;;;;;;21.97;5.43;;;6.70;99.90;;;;;;4417157;28;656903;-69
2021/10/16 03:20:32;;;;;;;14.73;5.10;;;6.80;99.90;;;;;;4428983;28;655429;-69
2021/10/16 03:23:19;;;;;;;16.83;5.07;;;6.70;99.90;;;;;;4443368;28;655606;-69
2021/10/16 03:26:07;;;;;;;11.37;5.03;;;6.80;99.90;;;;;;4420629;28;656830;-69
2021/10/16 03:28:55;;;;;;;12.43;5.20;;;6.70;99.90;;;;;;4446380;28;655821;-69
2021/10/16 03:31:42;;;;;;;20.00;4.87;;;6.70;99.90;;;;;;4417906;28;656264;-69
2021/10/16 03:34:30;;;;;;;8.80;4.13;;;6.70;99.90;;;;;;4440245;28;655580;-69
2021/10/16 03:37:19;;;;;;;12.50;4.10;;;6.70;99.90;;;;;;4416672;28;655725;-69
2021/10/16 03:40:07;;;;;;;9.40;3.97;;;6.80;99.90;;;;;;4419309;28;655910;-69
2021/10/16 03:42:55;;;;;;;9.00;3.93;;;6.80;99.90;;;;;;4433133;28;654258;-69
2021/10/16 03:45:43;;;;;;;7.97;3.53;;;6.70;99.90;;;;;;4442500;28;655880;-69
2021/10/16 03:48:31;;;;;;;11.55;3.75;;;6.70;99.90;;;;;;4421685;28;654363;-69
2021/10/16 03:51:18;;;;;;;10.10;3.77;;;6.70;99.90;;;;;;4444699;28;656155;-69
2021/10/16 03:54:07;;;;;;;13.23;3.60;;;6.80;99.90;;;;;;4418668;28;655521;-69
2021/10/16 03:56:55;;;;;;;16.03;3.70;;;6.70;99.90;;;;;;4434723;28;656736;-69
2021/10/16 03:59:43;;;;;;;11.07;3.70;;;6.80;99.90;;;;;;4418087;28;656456;-69
2021/10/16 04:02:31;;;;;;;16.50;4.00;;;6.70;99.90;;;;;;4421612;28;655352;-69
2021/10/16 04:05:18;;;;;;;13.47;3.77;;;6.80;99.90;;;;;;4444031;28;656325;-69
2021/10/16 04:08:08;;;;;;;11.67;3.37;;;6.70;99.90;;;;;;4423792;28;655507;-69
2021/10/16 04:10:57;;;;;;;9.50;3.95;;;6.80;99.90;;;;;;4422233;28;656742;-69
2021/10/16 04:13:44;;;;;;;12.50;3.90;;;6.80;99.90;;;;;;4442618;28;654691;-69
2021/10/16 04:16:32;;;;;;;9.80;3.93;;;6.80;99.90;;;;;;4423037;28;656715;-69
2021/10/16 04:19:19;;;;;;;11.55;4.10;;;6.80;99.90;;;;;;4440200;28;654905;-69
2021/10/16 04:22:07;;;;;;;13.20;4.43;;;6.80;99.90;;;;;;4416073;28;656975;-69
2021/10/16 04:24:55;;;;;;;15.77;4.63;;;6.80;99.90;;;;;;4434344;28;655418;-69
2021/10/16 04:27:44;;;;;;;15.90;4.40;;;6.80;99.90;;;;;;4412111;28;656376;-69
2021/10/16 04:30:32;;;;;;;15.97;4.30;;;6.80;99.90;;;;;;4414688;28;655317;-69
2021/10/16 04:33:19;;;;;;;13.60;4.43;;;6.80;99.90;;;;;;4434801;28;655674;-69
2021/10/16 04:36:07;;;;;;;17.47;4.43;;;6.90;99.90;;;;;;4420590;28;655393;-69
2021/10/16 04:38:55;;;;;;;16.67;4.47;;;6.80;99.90;;;;;;4441079;28;656836;-69
2021/10/16 04:41:43;;;;;;;11.37;4.60;;;6.80;99.90;;;;;;4415349;28;656728;-69
2021/10/16 04:44:32;;;;;;;15.10;4.20;;;6.80;99.90;;;;;;4419835;28;655562;-69
2021/10/16 04:47:19;;;;;;;11.87;4.07;;;6.80;99.90;;;;;;4438167;28;655461;-69
2021/10/16 04:50:07;;;;;;;10.23;4.30;;;6.80;99.90;;;;;;4415135;28;656862;-69
2021/10/16 04:52:55;;;;;;;12.17;4.30;;;6.90;99.90;;;;;;4437706;28;655860;-69
2021/10/16 04:55:43;;;;;;;12.37;4.10;;;6.80;99.90;;;;;;4435368;28;655516;-69
2021/10/16 04:58:30;;;;;;;21.95;5.07;;;6.80;99.90;;;;;;4419426;28;655733;-69
2021/10/16 05:01:20;;;;;;;15.50;4.80;;;6.80;99.90;;;;;;4436811;28;655782;-69
2021/10/16 05:04:07;;;;;;;16.80;5.10;;;6.90;99.90;;;;;;4411416;28;656305;-69
2021/10/16 05:06:56;;;;;;;18.93;5.47;;;6.90;99.90;;;;;;4433735;28;655298;-69
2021/10/16 05:09:45;;;;;;;14.07;5.23;;;6.90;99.90;;;;;;4411201;28;656520;-69
2021/10/16 05:12:32;;;;;;;14.37;5.33;;;6.90;99.90;;;;;;4415177;28;656350;-69
2021/10/16 05:15:20;;;;;;;20.47;6.30;;;6.90;99.90;;;;;;4442068;28;655257;-69
2021/10/16 05:18:09;;;;;;;24.83;7.67;;;7.00;99.90;;;;;;4417143;28;656587;-69
2021/10/16 05:20:57;;;;;;;12.53;5.60;;;7.00;99.90;;;;;;4428802;28;656291;-69
2021/10/16 05:23:44;;;;;;;15.53;6.20;;;7.00;99.90;;;;;;4436165;28;655929;-69
2021/10/16 05:26:32;;;;;;;18.03;7.40;;;7.00;99.90;;;;;;4421163;28;656420;-69
2021/10/16 05:29:21;;;;;;;17.37;7.63;;;6.90;99.90;;;;;;4437440;28;655508;-68
2021/10/16 05:32:09;;;;;;;27.30;8.57;;;6.80;99.90;;;;;;4408943;28;655857;-68
2021/10/16 05:34:58;;;;;;;22.73;8.67;;;6.80;99.90;;;;;;4419485;28;655301;-68
2021/10/16 05:37:46;;;;;;;23.23;9.00;;;6.80;99.90;;;;;;4434958;28;656995;-68
2021/10/16 05:40:33;;;;;;;18.35;9.15;;;6.80;99.90;;;;;;4440554;28;656556;-69
2021/10/16 05:43:21;;;;;;;24.20;9.97;;;6.90;99.90;;;;;;4414645;28;655619;-69
2021/10/16 05:46:08;;;;;;;29.77;10.73;;;6.90;99.90;;;;;;4433257;28;656648;-69
2021/10/16 05:48:56;;;;;;;21.87;11.23;;;6.90;99.90;;;;;;4414571;28;656753;-69
2021/10/16 05:51:45;;;;;;;29.92;10.23;;;6.90;99.90;;;;;;4433704;28;657074;-69
2021/10/16 05:54:32;;;;;;;26.77;11.30;;;6.90;99.90;;;;;;4413422;28;656944;-69
2021/10/16 05:57:20;;;;;;;23.67;10.77;;;7.00;99.90;;;;;;4425115;28;656161;-68
2021/10/16 06:00:09;;;;;;;24.30;11.53;;;7.00;99.90;;;;;;4440342;28;656626;-69
2021/10/16 06:02:57;;;;;;;25.33;11.50;;;7.00;99.90;;;;;;4416785;28;656453;-69
2021/10/16 06:05:46;;;;;;;21.37;10.77;;;7.10;99.90;;;;;;4431602;28;657447;-69
2021/10/16 06:08:34;;;;;;;25.07;10.57;;;7.10;99.90;;;;;;4445121;28;656700;-68
2021/10/16 06:11:22;;;;;;;34.83;12.10;;;7.10;99.90;;;;;;4409761;28;657925;-69
2021/10/16 06:14:10;;;;;;;22.77;11.23;;;7.10;99.90;;;;;;4432113;28;656647;-69
2021/10/16 06:16:57;;;;;;;26.00;11.40;;;7.20;99.90;;;;;;4409105;28;658004;-68
2021/10/16 06:19:46;;;;;;;28.67;11.77;;;7.20;99.90;;;;;;4432932;28;656886;-69
2021/10/16 06:22:33;;;;;;;22.57;11.40;;;7.30;99.90;;;;;;4410319;28;657596;-68
2021/10/16 06:25:22;;;;;;;30.10;12.17;;;7.30;99.90;;;;;;4413578;28;656989;-68
2021/10/16 06:28:13;;;;;;;24.10;11.77;;;7.30;99.90;;;;;;4432213;28;657008;-69
2021/10/16 06:31:01;;;;;;;30.20;12.27;;;7.40;99.90;;;;;;4388170;28;656716;-69
2021/10/16 06:33:49;;;;;;;26.63;11.33;;;7.50;99.90;;;;;;4435512;28;657615;-69
2021/10/16 06:36:36;;;;;;;24.97;12.07;;;7.50;99.90;;;;;;4412724;28;656974;-69
2021/10/16 06:39:24;;;;;;;30.47;12.60;;;7.50;99.90;;;;;;4419829;28;657369;-68
2021/10/16 06:42:13;;;;;;;27.73;11.48;;;7.50;99.90;;;;;;4399962;28;656800;-69
2021/10/16 06:45:01;;;;;;;30.27;11.77;;;7.60;99.90;;;;;;4408737;28;656805;-69
2021/10/16 06:47:48;;;;;;;30.53;11.97;;;7.60;99.90;;;;;;4426057;28;657428;-69
2021/10/16 06:50:38;;;;;;;25.27;12.23;;;7.60;99.90;;;;;;4401511;28;657056;-68
2021/10/16 06:53:25;;;;;;;24.53;11.17;;;7.70;99.90;;;;;;4416939;28;657241;-69
2021/10/16 06:56:13;;;;;;;25.30;10.90;;;7.70;99.90;;;;;;4423117;28;657746;-69
2021/10/16 06:59:02;;;;;;;23.20;10.80;;;7.80;99.90;;;;;;4408309;28;656462;-68
2021/10/16 07:01:50;;;;;;;27.90;11.63;;;7.80;99.90;;;;;;4427785;28;657288;-68
2021/10/16 07:04:37;;;;;;;34.57;11.13;;;7.80;99.90;;;;;;4406349;28;657626;-69
2021/10/16 07:07:25;;;;;;;31.73;12.90;;;7.80;99.90;;;;;;4425978;28;656558;-69
2021/10/16 07:10:12;;;;;;;25.47;11.50;;;7.70;99.90;;;;;;4401303;28;657013;-68
2021/10/16 07:13:03;;;;;;;30.60;13.33;;;7.80;99.90;;;;;;4419567;28;656525;-68
2021/10/16 07:15:52;;;;;;;27.13;11.97;;;7.80;99.90;;;;;;4456250;28;657409;-76
2021/10/16 07:18:40;;;;;;;27.92;11.50;;;7.90;99.90;;;;;;4426100;28;656474;-76
2021/10/16 07:21:27;;;;;;;25.97;12.63;;;7.80;99.90;;;;;;4400766;28;657324;-76
2021/10/16 07:24:15;;;;;;;26.43;12.30;;;7.80;99.90;;;;;;4421566;28;656350;-76
2021/10/16 07:27:02;;;;;;;27.07;13.93;;;7.80;99.90;;;;;;4402375;28;657589;-77
2021/10/16 07:29:50;;;;;;;33.63;14.43;;;7.70;99.90;;;;;;4421289;28;656824;-76
2021/10/16 07:32:39;;;;;;;29.37;13.73;;;7.60;99.90;;;;;;4422832;28;657562;-75
2021/10/16 07:35:27;;;;;;;29.13;14.17;;;7.70;99.90;;;;;;4407697;28;656409;-76
2021/10/16 07:38:15;;;;;;;34.05;15.80;;;7.70;99.90;;;;;;4424985;28;656551;-76
2021/10/16 07:41:02;;;;;;;38.70;15.70;;;7.60;99.90;;;;;;4397186;28;657932;-76
2021/10/16 07:43:50;;;;;;;38.53;16.60;;;7.70;99.90;;;;;;4424321;28;656393;-76
2021/10/16 07:46:37;;;;;;;36.63;16.77;;;7.70;99.90;;;;;;4399332;28;657567;-76
2021/10/16 07:49:26;;;;;;;36.93;15.47;;;7.80;99.90;;;;;;4430040;28;656193;-76
2021/10/16 07:52:14;;;;;;;36.00;17.00;;;7.70;99.90;;;;;;4397358;28;657013;-76
2021/10/16 07:55:01;;;;;;;33.07;14.43;;;7.80;99.90;;;;;;4406428;28;656899;-77
2021/10/16 07:57:49;;;;;;;29.80;14.87;;;7.90;99.90;;;;;;4424443;28;656952;-76
2021/10/16 08:00:36;;;;;;;28.20;14.33;;;8.00;99.90;;;;;;4404030;28;657599;-76
2021/10/16 08:03:24;;;;;;;25.53;13.57;;;8.20;99.90;;;;;;4426662;28;656854;-75
2021/10/16 08:06:13;;;;;;;25.03;11.73;;;8.30;99.90;;;;;;4402852;28;656494;-76
2021/10/16 08:09:01;;;;;;;23.07;12.10;;;8.40;99.90;;;;;;4405791;28;656556;-76
2021/10/16 08:11:49;;;;;;;35.13;13.23;;;8.40;99.90;;;;;;4428356;28;656710;-75
2021/10/16 08:14:36;;;;;;;26.67;11.30;;;8.40;99.90;;;;;;4406121;28;657312;-76
2021/10/16 08:17:24;;;;;;;29.43;12.57;;;8.60;99.90;;;;;;4423139;28;657565;-76
2021/10/16 08:20:12;;;;;;;30.33;12.07;;;8.70;99.90;;;;;;4398445;28;656692;-76
2021/10/16 08:23:04;;;;;;;25.53;11.67;;;8.90;99.90;;;;;;4427060;28;655997;-76
2021/10/16 08:25:52;;;;;;;32.20;12.53;;;8.80;99.90;;;;;;4371449;28;657658;-75
2021/10/16 08:28:39;;;;;;;23.43;10.40;;;8.80;99.90;;;;;;4423238;28;657844;-77
2021/10/16 08:31:28;;;;;;;26.57;10.27;;;8.80;99.90;;;;;;4404624;28;656750;-76
2021/10/16 08:34:16;;;;;;;24.50;9.60;;;8.80;99.90;;;;;;4403294;28;656783;-76
2021/10/16 08:37:10;;;;;;;16.13;9.50;;;9.00;99.90;;;;;;4423268;28;655981;-77
2021/10/16 08:40:07;;;;;;;19.97;9.17;;;9.20;99.90;;;;;;4413823;28;656235;-77
2021/10/16 08:42:55;;;;;;;20.80;10.57;;;9.40;99.90;;;;;;4434542;28;655470;-76
2021/10/16 08:45:42;;;;;;;17.33;7.87;;;9.50;99.90;;;;;;4419571;28;658336;-77
2021/10/16 08:48:30;;;;;;;19.70;8.33;;;9.70;99.90;;;;;;4438770;28;655605;-76
2021/10/16 08:51:17;;;;;;;21.87;10.83;;;9.80;99.90;;;;;;4413227;28;656221;-76
2021/10/16 08:54:06;;;;;;;23.87;9.87;;;9.60;99.90;;;;;;4433207;28;657966;-76
2021/10/16 08:56:54;;;;;;;20.70;10.00;;;9.70;99.90;;;;;;4439102;28;657224;-76
2021/10/16 08:59:42;;;;;;;21.47;8.80;;;9.70;99.90;;;;;;4413795;28;659346;-76
2021/10/16 09:02:37;;;;;;;21.50;10.20;;;9.60;99.90;;;;;;4438400;28;656647;-78
2021/10/16 09:05:24;;;;;;;21.93;10.40;;;9.50;99.90;;;;;;4434965;28;657703;-78
2021/10/16 09:08:18;;;;;;;27.47;11.13;;;9.40;99.90;;;;;;4424112;28;657439;-79
2021/10/16 09:11:20;;;;;;;21.70;11.45;;;9.30;99.90;;;;;;4407665;28;657371;-76
2021/10/16 09:14:10;;;;;;;21.13;10.33;;;9.10;99.90;;;;;;4415993;28;658522;-78
2021/10/16 09:17:16;;;;;;;26.07;11.57;;;9.00;99.90;;;;;;4435860;28;659113;-75
2021/10/16 09:20:10;;;;;;;25.77;10.47;;;8.90;99.90;;;;;;4413362;28;657622;-75
2021/10/16 09:23:04;;;;;;;27.97;11.33;;;8.90;99.90;;;;;;4394615;28;658169;-75
2021/10/16 09:25:57;;;;;;;25.80;9.90;;;8.90;99.90;;;;;;4415455;28;658228;-76
2021/10/16 09:28:45;;;;;;;22.53;10.87;;;9.00;99.90;;;;;;4416839;28;656613;-76
2021/10/16 09:31:36;;;;;;;34.73;10.63;;;9.10;99.90;;;;;;4415639;28;658748;-76
2021/10/16 09:34:26;;;;;;;21.00;10.83;;;9.30;99.90;;;;;;4414282;28;658716;-75
2021/10/16 09:37:14;;;;;;;29.80;11.10;;;9.30;99.90;;;;;;4410182;28;658837;-75
2021/10/16 09:40:02;;;;;;;22.33;11.27;;;9.30;99.90;;;;;;4420379;28;657248;-75
2021/10/16 09:42:52;;;;;;;25.80;10.13;;;9.30;99.90;;;;;;4416512;28;657632;-76
2021/10/16 09:45:39;;;;;;;24.57;10.00;;;9.50;99.90;;;;;;4438135;28;657745;-76
2021/10/16 09:48:36;;;;;;;19.20;8.20;;;10.20;99.90;;;;;;4416546;28;658810;-76
2021/10/16 09:51:24;;;;;;;28.23;8.17;;;10.90;99.90;;;;;;4412235;28;657835;-75
2021/10/16 09:54:11;;;;;;;16.63;7.67;;;11.30;99.90;;;;;;4411453;28;657733;-76
2021/10/16 09:57:00;;;;;;;19.70;7.47;;;10.60;99.90;;;;;;4432858;28;658864;-76
2021/10/16 09:59:48;;;;;;;22.27;9.13;;;10.30;99.90;;;;;;4415564;28;658417;-76
2021/10/16 10:02:35;;;;;;;21.83;9.18;;;10.00;99.90;;;;;;4418560;28;657568;-75
2021/10/16 10:05:25;;;;;;;22.10;9.90;;;9.80;99.90;;;;;;4437311;28;657689;-76
2021/10/16 10:08:12;;;;;;;23.90;10.10;;;9.90;99.90;;;;;;4409577;28;657806;-76
2021/10/16 10:11:00;;;;;;;19.43;7.70;;;10.50;99.90;;;;;;4439142;28;657886;-75
2021/10/16 10:13:48;;;;;;;21.30;7.37;;;11.20;99.90;;;;;;4407684;28;658894;-76
2021/10/16 10:16:36;;;;;;;11.87;4.77;;;11.90;99.90;;;;;;4415488;28;657451;-75
2021/10/16 10:19:24;;;;;;;16.37;7.70;;;11.90;99.90;;;;;;4431914;28;657732;-75
2021/10/16 10:22:14;;;;;;;17.80;6.23;;;11.30;99.90;;;;;;4418024;28;657511;-76
2021/10/16 10:25:02;;;;;;;14.05;6.28;;;10.90;99.90;;;;;;4421756;28;657459;-75
2021/10/16 10:27:51;;;;;;;16.13;6.57;;;10.60;99.90;;;;;;4437687;28;657443;-75
2021/10/16 10:30:40;;;;;;;19.20;7.23;;;10.40;99.90;;;;;;4414057;28;658514;-75
2021/10/16 10:33:29;;;;;;;20.07;8.33;;;10.30;99.90;;;;;;4435879;28;659809;-76
2021/10/16 10:36:23;;;;;;;17.07;7.30;;;10.10;99.90;;;;;;4417246;28;658122;-75
2021/10/16 10:39:42;;;;;;;21.70;8.10;;;10.20;99.90;;;;;;4423563;28;657651;-75
2021/10/16 10:42:54;;;;;;;16.77;6.93;;;10.20;99.90;;;;;;4428565;28;657341;-75
2021/10/16 10:45:43;;;;;;;17.63;7.00;;;10.40;99.90;;;;;;4388590;28;658482;-75
2021/10/16 10:48:41;;;;;;;17.25;7.65;;;10.40;99.90;;;;;;4437130;28;657637;-75
2021/10/16 10:51:33;;;;;;;18.33;7.55;;;10.60;99.90;;;;;;4443783;28;658364;-76
2021/10/16 10:54:22;;;;;;;18.00;6.30;;;10.80;99.90;;;;;;4431108;28;657883;-75
2021/10/16 10:57:11;;;;;;;14.63;6.03;;;11.00;99.90;;;;;;4435401;28;657864;-76
2021/10/16 11:00:01;;;;;;;13.70;6.03;;;11.20;99.90;;;;;;4410507;28;657734;-76
2021/10/16 11:02:48;;;;;;;15.90;6.27;;;11.50;99.90;;;;;;4418593;28;658456;-75
2021/10/16 11:05:36;;;;;;;17.63;6.40;;;11.60;99.90;;;;;;4430121;28;658015;-75
2021/10/16 11:08:24;;;;;;;14.63;5.97;;;11.30;99.90;;;;;;4437431;28;658103;-76
2021/10/16 11:11:12;;;;;;;19.27;6.70;;;10.90;99.90;;;;;;4421213;28;658252;-75
2021/10/16 11:14:11;;;;;;;13.83;6.10;;;10.50;99.90;;;;;;4431499;28;657587;-75
2021/10/16 11:17:01;;;;;;;15.83;6.23;;;10.40;99.90;;;;;;4421605;28;658353;-76
2021/10/16 11:19:54;;;;;;;19.07;6.80;;;10.40;99.90;;;;;;4421582;28;658338;-75
2021/10/16 11:22:48;;;;;;;15.97;6.83;;;10.40;99.90;;;;;;4411277;28;657936;-75
2021/10/16 11:25:38;;;;;;;18.97;7.60;;;10.10;99.90;;;;;;4394081;28;657756;-75
2021/10/16 11:28:26;;;;;;;21.85;7.10;;;10.10;99.90;;;;;;4417100;28;657542;-75
2021/10/16 11:31:15;;;;;;;14.77;6.10;;;10.00;99.90;;;;;;4432883;28;658734;-76
2021/10/16 11:34:09;;;;;;;18.57;6.33;;;9.80;99.90;;;;;;4410758;28;658575;-76
2021/10/16 11:36:56;;;;;;;22.50;8.10;;;9.70;99.90;;;;;;4417224;28;656690;-76
2021/10/16 11:40:00;;;;;;;22.63;8.40;;;9.60;99.90;;;;;;4437087;28;657117;-75
2021/10/16 11:42:49;;;;;;;21.07;8.23;;;9.60;99.90;;;;;;4395917;28;657162;-75
2021/10/16 11:45:37;;;;;;;24.60;9.27;;;9.60;99.90;;;;;;4414291;28;656515;-76
2021/10/16 11:48:29;;;;;;;22.77;8.87;;;9.50;99.90;;;;;;4445392;28;656533;-74
2021/10/16 11:51:17;;;;;;;19.60;8.20;;;9.50;99.90;;;;;;4420648;28;656539;-75
2021/10/16 11:54:17;;;;;;;23.30;8.73;;;9.50;99.90;;;;;;4437279;28;656580;-75
2021/10/16 11:57:04;;;;;;;21.20;8.17;;;9.50;99.90;;;;;;4413577;28;656575;-75
2021/10/16 11:59:52;;;;;;;21.33;7.97;;;9.50;99.90;;;;;;4415153;28;657538;-75
2021/10/16 12:02:40;;;;;;;14.27;7.00;;;9.70;99.90;;;;;;4451267;28;656470;-75
2021/10/16 12:05:29;;;;;;;20.17;7.90;;;9.80;99.90;;;;;;4420204;28;657702;-74
2021/10/16 12:08:19;;;;;;;16.97;7.37;;;9.90;99.90;;;;;;4416963;28;656251;-75
2021/10/16 12:11:07;;;;;;;22.33;7.57;;;10.10;99.90;;;;;;4415251;28;657053;-74
2021/10/16 12:13:57;;;;;;;19.60;6.97;;;10.60;99.90;;;;;;4438819;28;657588;-68
2021/10/16 12:16:46;;;;;;;17.20;7.27;;;11.20;99.90;;;;;;4410379;28;657932;-68
2021/10/16 12:19:33;;;;;;;16.60;7.03;;;11.90;99.90;;;;;;4406583;28;658211;-68
2021/10/16 12:22:23;;;;;;;22.30;6.43;;;13.10;99.90;;;;;;4421331;28;657784;-69
2021/10/16 12:25:11;;;;;;;24.17;6.60;;;14.20;99.90;;;;;;4433701;28;657946;-68
2021/10/16 12:28:02;;;;;;;19.77;6.13;;;13.80;99.90;;;;;;4437774;28;657963;-68
2021/10/16 12:31:16;;;;;;;16.80;6.93;;;13.50;99.90;;;;;;4410333;28;657490;-68
2021/10/16 12:34:06;;;;;;;19.27;6.43;;;12.90;99.90;;;;;;4379954;28;658475;-68
2021/10/16 12:36:55;;;;;;;21.43;6.77;;;12.30;99.90;;;;;;4408861;28;658433;-68
2021/10/16 12:39:44;;;;;;;20.27;7.87;;;11.90;99.90;;;;;;4426199;28;657685;-67
2021/10/16 12:42:34;;;;;;;24.13;7.97;;;11.20;99.90;;;;;;4443001;28;659207;-68
2021/10/16 12:45:23;;;;;;;19.60;7.33;;;11.00;99.90;;;;;;4439109;28;657552;-68
2021/10/16 12:48:27;;;;;;;16.93;7.60;;;11.00;99.90;;;;;;4459489;28;657830;-75
2021/10/16 12:51:14;;;;;;;18.53;7.43;;;11.50;99.90;;;;;;4427264;28;657906;-75
2021/10/16 12:54:02;;;;;;;16.77;6.20;;;11.90;99.90;;;;;;4446048;28;658922;-74
2021/10/16 12:57:07;;;;;;;21.73;6.73;;;13.30;99.90;;;;;;4452782;28;657795;-75
2021/10/16 12:59:55;;;;;;;16.50;6.53;;;14.90;99.90;;;;;;4438581;28;657910;-75
2021/10/16 13:02:42;;;;;;;20.17;6.73;;;14.10;99.90;;;;;;4424260;28;658720;-75
2021/10/16 13:05:30;;;;;;;15.70;6.23;;;13.20;99.90;;;;;;4447192;28;657659;-75
2021/10/16 13:08:18;;;;;;;19.73;6.77;;;12.40;99.90;;;;;;4420338;28;657696;-75
2021/10/16 13:11:06;;;;;;;15.27;6.57;;;12.00;99.90;;;;;;4427363;28;658698;-75
2021/10/16 13:13:55;;;;;;;18.90;6.77;;;11.70;99.90;;;;;;4441537;28;657810;-75
2021/10/16 13:16:42;;;;;;;17.30;6.23;;;11.50;99.90;;;;;;4420155;28;658939;-74
2021/10/16 13:19:31;;;;;;;15.17;5.47;;;11.40;99.90;;;;;;4438865;28;657955;-76
2021/10/16 13:22:18;;;;;;;21.43;7.43;;;11.00;99.90;;;;;;4452167;28;657584;-75
2021/10/16 13:25:06;;;;;;;20.90;6.90;;;10.90;99.90;;;;;;4422319;28;657639;-75
2021/10/16 13:27:54;;;;;;;12.37;5.63;;;11.10;99.90;;;;;;4442619;28;658409;-75
2021/10/16 13:30:43;;;;;;;18.63;5.77;;;11.30;99.90;;;;;;4430763;28;657733;-74
2021/10/16 13:33:30;;;;;;;12.27;5.27;;;11.30;99.90;;;;;;4422182;28;657925;-74
2021/10/16 13:36:18;;;;;;;16.43;5.37;;;11.20;99.90;;;;;;4433034;28;659295;-75
2021/10/16 13:39:06;;;;;;;16.77;5.37;;;11.00;99.90;;;;;;4423083;28;657430;-74
2021/10/16 13:41:54;;;;;;;15.23;5.30;;;10.90;99.90;;;;;;4445899;28;657894;-74
2021/10/16 13:44:42;;;;;;;17.70;5.23;;;10.90;99.90;;;;;;4423006;28;657903;-74
2021/10/16 13:47:31;;;;;;;16.73;5.00;;;10.70;99.90;;;;;;4436580;28;657239;-75
2021/10/16 13:50:18;;;;;;;11.30;4.87;;;10.60;99.90;;;;;;4409058;28;657857;-74
2021/10/16 13:53:06;;;;;;;12.10;5.27;;;10.60;99.90;;;;;;4423899;28;657761;-74
2021/10/16 13:55:53;;;;;;;14.67;5.47;;;10.50;99.90;;;;;;4439645;28;658343;-75
2021/10/16 13:58:41;;;;;;;17.17;5.37;;;10.50;99.90;;;;;;4411779;28;657326;-74
2021/10/16 14:01:29;;;;;;;20.63;5.53;;;10.60;99.90;;;;;;4436622;28;658628;-74
2021/10/16 14:04:18;;;;;;;15.73;5.70;;;10.50;99.90;;;;;;4419397;28;657616;-74
2021/10/16 14:07:05;;;;;;;16.20;5.93;;;10.60;99.90;;;;;;4413497;28;657154;-74
2021/10/16 14:09:53;;;;;;;17.37;6.13;;;10.70;99.90;;;;;;4421235;28;657812;-74
2021/10/16 14:12:41;;;;;;;11.37;5.27;;;10.60;99.90;;;;;;4434657;28;658517;-74
2021/10/16 14:15:28;;;;;;;17.23;5.57;;;10.60;99.90;;;;;;4436993;28;658361;-74
2021/10/16 14:18:16;;;;;;;15.13;5.40;;;10.60;99.90;;;;;;4421143;28;658807;-74
2021/10/16 14:21:05;;;;;;;17.97;5.63;;;10.60;99.90;;;;;;4450350;28;660342;-75
2021/10/16 14:23:53;;;;;;;13.37;5.73;;;10.50;99.90;;;;;;4426481;28;658267;-74